Time;durP1;ratioP1;P1;durP2;ratioP2;P2;SDS_P1;SDS_P2;PMS_P1;PMS_P2;Temp;Humidity;BMP_temperature;BMP_pressure;BME280_temperature;BME280_humidity;BME280_pressure;Samples;Min_cycle;Max_cycle;Signal;HPM_P1;HPM_P2
2022/06/28 00:00:13;;;;;;;4.72;2.30;;;14.50;81.20;;;;;;4177883;28;20040;-85
2022/06/28 00:02:34;;;;;;;2.65;2.03;;;14.50;81.20;;;;;;4170517;28;20039;-84
2022/06/28 00:04:55;;;;;;;3.63;1.85;;;14.50;81.30;;;;;;4170782;28;20040;-86
2022/06/28 00:07:16;;;;;;;5.72;2.10;;;14.50;81.30;;;;;;4177111;28;20041;-85
2022/06/28 00:09:37;;;;;;;5.00;2.50;;;14.40;81.40;;;;;;4176247;28;20037;-86
2022/06/28 00:11:58;;;;;;;8.82;2.63;;;14.50;81.40;;;;;;4178830;28;20039;-84
2022/06/28 00:17:02;;;;;;;8.68;2.10;;;14.50;81.30;;;;;;4178229;28;20029;-84
2022/06/28 00:19:23;;;;;;;7.80;2.28;;;14.40;81.30;;;;;;4176969;28;20260;-86
2022/06/28 00:21:44;;;;;;;5.50;2.53;;;14.50;81.30;;;;;;4176221;28;20057;-85
2022/06/28 00:24:05;;;;;;;4.35;1.90;;;14.40;81.30;;;;;;4179727;28;20521;-85
2022/06/28 00:26:26;;;;;;;7.32;2.03;;;14.50;81.30;;;;;;4178515;28;20033;-86
2022/06/28 00:28:47;;;;;;;8.05;2.10;;;14.40;81.20;;;;;;4180867;28;20025;-84
2022/06/28 00:31:11;;;;;;;6.80;2.10;;;14.40;81.10;;;;;;4176437;28;20065;-85
2022/06/28 00:33:35;;;;;;;6.20;1.60;;;14.40;81.20;;;;;;4178406;28;20037;-85
2022/06/28 00:35:56;;;;;;;;;;;14.30;81.00;;;;;;4178620;28;20036;-85
2022/06/28 00:38:17;;;;;;;6.15;1.40;;;14.40;81.20;;;;;;4173108;28;19909;-87
2022/06/28 00:40:52;;;;;;;6.10;1.63;;;14.40;80.80;;;;;;4178477;28;20108;-85
2022/06/28 00:43:14;;;;;;;5.85;1.70;;;14.40;80.90;;;;;;4175015;28;20026;-85
2022/06/28 00:45:36;;;;;;;2.80;1.50;;;14.40;80.90;;;;;;4172135;28;20037;-87
2022/06/28 00:47:57;;;;;;;10.68;2.08;;;14.40;81.00;;;;;;4175187;28;20041;-85
2022/06/28 00:50:18;;;;;;;8.20;1.80;;;14.40;81.10;;;;;;4172822;28;21953;-85
2022/06/28 00:53:00;;;;;;;6.88;1.60;;;14.30;81.20;;;;;;4175242;28;20056;-87
2022/06/28 00:55:21;;;;;;;6.65;1.60;;;14.30;81.50;;;;;;4178901;28;20029;-88
2022/06/28 00:57:51;;;;;;;7.20;1.77;;;14.30;81.30;;;;;;4177227;28;20048;-88
2022/06/28 01:00:13;;;;;;;8.30;1.75;;;14.30;81.50;;;;;;4172129;28;20033;-85
2022/06/28 01:02:34;;;;;;;2.90;1.90;;;14.30;81.40;;;;;;4173913;28;20059;-86
2022/06/28 01:04:55;;;;;;;5.78;1.98;;;14.30;81.40;;;;;;4173051;28;20043;-86
2022/06/28 01:07:16;;;;;;;2.30;1.40;;;14.30;81.30;;;;;;4173916;28;20074;-87
2022/06/28 01:09:40;;;;;;;4.47;1.83;;;14.30;81.40;;;;;;4169140;28;20318;-88
2022/06/28 01:12:01;;;;;;;6.15;1.73;;;14.40;81.40;;;;;;4176536;28;20048;-87
2022/06/28 01:14:24;;;;;;;5.57;2.03;;;14.30;81.40;;;;;;4173170;28;20033;-88
2022/06/28 01:16:46;;;;;;;3.35;1.95;;;14.30;81.20;;;;;;4175410;28;20046;-87
2022/06/28 01:19:08;;;;;;;2.63;1.50;;;14.30;81.20;;;;;;4166060;28;20041;-88
2022/06/28 01:21:51;;;;;;;3.97;1.80;;;14.30;81.20;;;;;;4177914;28;20106;-90
2022/06/28 01:24:12;;;;;;;2.28;1.73;;;14.30;82.00;;;;;;4173329;28;20037;-85
2022/06/28 01:26:33;;;;;;;5.88;1.73;;;14.20;81.10;;;;;;4170117;28;20037;-85
2022/06/28 01:28:54;;;;;;;4.43;1.40;;;14.30;81.10;;;;;;4171857;28;20044;-86
2022/06/28 01:31:17;;;;;;;3.10;1.35;;;14.30;81.30;;;;;;4178093;28;20029;-86
2022/06/28 01:33:39;;;;;;;1.63;1.35;;;14.30;81.20;;;;;;4172687;28;20036;-86
2022/06/28 01:36:00;;;;;;;1.42;1.10;;;14.30;81.20;;;;;;4169341;28;20037;-85
2022/06/28 01:38:22;;;;;;;1.35;1.20;;;14.30;81.10;;;;;;4183943;28;20052;-84
2022/06/28 01:40:46;;;;;;;3.25;1.50;;;14.30;81.20;;;;;;4175810;28;20561;-84
2022/06/28 01:43:06;;;;;;;2.53;1.50;;;14.20;81.00;;;;;;4180556;28;20101;-87
2022/06/28 01:45:29;;;;;;;2.20;1.27;;;14.30;81.10;;;;;;4178371;28;20083;-86
2022/06/28 01:47:50;;;;;;;3.15;1.50;;;14.30;81.00;;;;;;4178939;28;20665;-86
2022/06/28 01:50:11;;;;;;;3.97;1.60;;;14.30;81.00;;;;;;4176954;28;20033;-91
2022/06/28 01:52:32;;;;;;;4.28;1.42;;;14.20;80.80;;;;;;4174569;28;20045;-89
2022/06/28 01:54:53;;;;;;;6.28;1.50;;;14.30;80.70;;;;;;4174102;28;20033;-85
2022/06/28 01:57:15;;;;;;;6.20;1.58;;;14.30;80.60;;;;;;4181456;28;20105;-85
2022/06/28 01:59:38;;;;;;;8.52;1.40;;;14.20;80.50;;;;;;4177063;28;20041;-84
2022/06/28 02:01:59;;;;;;;3.13;1.80;;;14.20;80.60;;;;;;4179865;28;20041;-87
2022/06/28 02:04:22;;;;;;;2.42;1.52;;;14.20;80.70;;;;;;4179500;28;20030;-89
2022/06/28 02:06:43;;;;;;;4.53;1.40;;;14.20;80.70;;;;;;4177678;28;20045;-86
2022/06/28 02:09:04;;;;;;;11.60;1.60;;;14.20;80.80;;;;;;4178917;28;20037;-84
2022/06/28 02:11:25;;;;;;;1.40;1.30;;;14.20;80.80;;;;;;4178211;28;20048;-86
2022/06/28 02:13:47;;;;;;;4.75;1.40;;;14.20;80.80;;;;;;4177966;28;20058;-83
2022/06/28 02:16:08;;;;;;;3.15;1.50;;;14.10;80.80;;;;;;4182286;28;20036;-84
2022/06/28 02:18:31;;;;;;;3.42;1.55;;;14.10;80.80;;;;;;4175274;28;20041;-83
2022/06/28 02:20:51;;;;;;;5.22;1.40;;;14.10;80.70;;;;;;4175527;28;20540;-81
2022/06/28 02:23:12;;;;;;;8.05;1.60;;;14.20;80.70;;;;;;4175340;28;20029;-87
2022/06/28 02:25:34;;;;;;;4.68;1.40;;;14.10;80.70;;;;;;4173650;28;20120;-83
2022/06/28 02:27:54;;;;;;;7.00;1.58;;;14.10;80.70;;;;;;4174313;28;20032;-86
2022/06/28 02:30:15;;;;;;;2.90;1.55;;;14.10;80.70;;;;;;4178507;28;20033;-84
2022/06/28 02:32:37;;;;;;;3.72;1.48;;;14.10;80.60;;;;;;4173701;28;20032;-84
2022/06/28 02:40:23;;;;;;;4.15;1.75;;;14.00;80.30;;;;;;4172144;28;20030;-84
2022/06/28 02:42:43;;;;;;;6.80;1.67;;;14.00;80.30;;;;;;4177711;28;20135;-86
2022/06/28 02:45:05;;;;;;;4.10;1.50;;;14.00;80.30;;;;;;4182555;28;20030;-87
2022/06/28 02:47:26;;;;;;;11.40;1.73;;;14.00;80.30;;;;;;4176090;28;20039;-87
2022/06/28 02:49:47;;;;;;;6.55;1.50;;;14.00;80.40;;;;;;4176975;28;20064;-84
2022/06/28 02:52:08;;;;;;;6.57;1.65;;;13.90;80.30;;;;;;4179862;28;20065;-85
2022/06/28 02:54:30;;;;;;;3.88;1.73;;;13.90;80.40;;;;;;4181761;28;20026;-86
2022/06/28 02:56:53;;;;;;;5.50;1.65;;;13.90;80.30;;;;;;4190544;28;20044;-84
2022/06/28 02:59:14;;;;;;;2.60;1.65;;;13.90;80.40;;;;;;4174182;28;20053;-84
2022/06/28 03:01:35;;;;;;;6.28;1.70;;;13.90;80.40;;;;;;4176875;28;20025;-84
2022/06/28 03:03:56;;;;;;;7.00;1.83;;;13.90;80.50;;;;;;4179413;28;20038;-84
2022/06/28 03:06:17;;;;;;;3.17;1.40;;;13.90;80.50;;;;;;4171952;28;20026;-89
2022/06/28 03:08:38;;;;;;;5.68;1.65;;;13.80;80.60;;;;;;4179034;28;20032;-85
2022/06/28 03:11:00;;;;;;;2.28;1.70;;;13.90;80.80;;;;;;4180714;28;20516;-88
2022/06/28 03:13:21;;;;;;;12.10;1.88;;;13.80;80.80;;;;;;4182223;28;20040;-88
2022/06/28 03:15:42;;;;;;;7.93;1.83;;;13.90;80.80;;;;;;4179089;28;20037;-84
2022/06/28 03:18:03;;;;;;;7.78;1.98;;;13.80;80.70;;;;;;4178702;28;20145;-86
2022/06/28 03:20:24;;;;;;;2.95;1.70;;;13.90;80.80;;;;;;4181423;28;20067;-85
2022/06/28 03:22:45;;;;;;;4.75;1.65;;;13.80;80.80;;;;;;4175243;28;20382;-85
2022/06/28 03:25:10;;;;;;;9.10;1.80;;;13.90;80.90;;;;;;4183733;28;20082;-86
2022/06/28 03:27:31;;;;;;;5.05;1.80;;;13.80;80.70;;;;;;4181607;28;20545;-84
2022/06/28 03:29:52;;;;;;;4.63;1.58;;;13.90;80.80;;;;;;4179649;28;20035;-86
2022/06/28 03:32:13;;;;;;;13.10;2.25;;;13.90;81.40;;;;;;4182742;28;20056;-87
2022/06/28 03:34:34;;;;;;;4.05;2.03;;;13.80;80.60;;;;;;4181903;28;20028;-84
2022/06/28 03:36:55;;;;;;;2.97;2.10;;;13.90;80.60;;;;;;4183636;28;20033;-87
2022/06/28 03:39:17;;;;;;;5.63;2.53;;;13.80;80.60;;;;;;4178627;28;20037;-84
2022/06/28 03:41:38;;;;;;;4.05;2.05;;;13.80;80.60;;;;;;4175362;28;20037;-85
2022/06/28 03:43:59;;;;;;;8.18;2.47;;;13.80;80.60;;;;;;4181943;28;20040;-85
2022/06/28 03:46:23;;;;;;;4.55;2.30;;;13.80;80.60;;;;;;4179256;28;20048;-88
2022/06/28 03:48:46;;;;;;;6.65;2.60;;;13.80;80.60;;;;;;4180012;28;20071;-86
2022/06/28 03:51:07;;;;;;;6.57;2.40;;;13.80;80.60;;;;;;4178381;28;20029;-89
2022/06/28 03:53:28;;;;;;;11.95;3.00;;;13.90;80.70;;;;;;4181564;28;20047;-87
2022/06/28 03:55:48;;;;;;;5.55;2.80;;;13.90;80.80;;;;;;4176373;28;20029;-86
2022/06/28 03:58:09;;;;;;;4.78;2.70;;;14.00;80.80;;;;;;4180441;28;20052;-84
2022/06/28 04:00:30;;;;;;;5.82;3.03;;;13.90;80.70;;;;;;4170976;28;20168;-87
2022/06/28 04:02:51;;;;;;;7.40;3.03;;;13.80;81.50;;;;;;4179738;28;20098;-86
2022/06/28 04:05:16;;;;;;;8.73;3.22;;;14.00;80.90;;;;;;4180459;28;20059;-86
2022/06/28 04:07:37;;;;;;;22.15;3.90;;;13.90;80.90;;;;;;4177389;28;20072;-88
2022/06/28 04:09:57;;;;;;;5.47;3.42;;;14.00;81.00;;;;;;4185423;28;20029;-84
2022/06/28 04:12:18;;;;;;;7.47;3.42;;;14.00;81.10;;;;;;4180464;28;20025;-86
2022/06/28 04:14:39;;;;;;;7.13;3.30;;;14.00;81.40;;;;;;4182309;28;20056;-86
2022/06/28 04:17:00;;;;;;;8.70;3.38;;;14.10;81.70;;;;;;4175196;28;20033;-87
2022/06/28 04:19:21;;;;;;;5.78;2.95;;;14.10;81.70;;;;;;4181423;28;20033;-87
2022/06/28 04:21:42;;;;;;;16.90;3.95;;;14.10;81.70;;;;;;4182331;28;20032;-84
2022/06/28 04:24:04;;;;;;;6.65;3.55;;;14.10;81.80;;;;;;4180187;28;20313;-85
2022/06/28 04:26:24;;;;;;;8.80;4.10;;;14.20;82.10;;;;;;4177589;28;20039;-87
2022/06/28 04:28:45;;;;;;;12.57;3.60;;;14.20;82.20;;;;;;4175054;28;20271;-85
2022/06/28 04:31:07;;;;;;;9.65;3.80;;;14.30;82.30;;;;;;4176230;28;20068;-85
2022/06/28 04:33:28;;;;;;;7.15;3.55;;;14.30;82.30;;;;;;4174304;28;20228;-85
2022/06/28 04:35:49;;;;;;;13.00;3.13;;;14.30;82.10;;;;;;4174572;28;20097;-84
2022/06/28 04:38:10;;;;;;;9.60;3.00;;;14.40;82.10;;;;;;4171923;28;20033;-89
2022/06/28 04:40:31;;;;;;;4.63;3.17;;;14.40;82.10;;;;;;4174025;28;20017;-87
2022/06/28 04:42:52;;;;;;;9.30;3.85;;;14.50;82.10;;;;;;4173976;28;20041;-85
2022/06/28 04:45:13;;;;;;;8.43;3.45;;;14.50;82.10;;;;;;4176008;28;20047;-86
2022/06/28 04:47:34;;;;;;;10.23;3.25;;;14.50;81.90;;;;;;4175500;28;20048;-87
2022/06/28 04:49:55;;;;;;;5.45;2.95;;;14.50;81.80;;;;;;4175997;28;20028;-87
2022/06/28 04:52:16;;;;;;;8.20;3.40;;;14.50;81.70;;;;;;4174743;28;20045;-88
2022/06/28 04:54:37;;;;;;;4.25;3.05;;;14.50;81.60;;;;;;4176553;28;20306;-89
2022/06/28 04:56:58;;;;;;;6.40;3.35;;;14.60;81.80;;;;;;4176680;28;20049;-85
2022/06/28 04:59:19;;;;;;;6.22;3.05;;;14.60;81.70;;;;;;4175393;28;20351;-83
2022/06/28 05:01:39;;;;;;;11.13;4.35;;;14.60;81.80;;;;;;4175523;28;20029;-87
2022/06/28 05:04:00;;;;;;;19.27;3.72;;;14.70;82.00;;;;;;4179808;28;20017;-86
2022/06/28 05:06:21;;;;;;;11.88;3.75;;;14.70;82.20;;;;;;4176723;28;20033;-86
2022/06/28 05:08:42;;;;;;;7.72;3.05;;;14.80;82.40;;;;;;4178432;28;20091;-84
2022/06/28 05:11:04;;;;;;;12.13;3.05;;;14.70;82.50;;;;;;4185295;28;20028;-87
2022/06/28 05:13:25;;;;;;;5.32;2.92;;;14.90;82.70;;;;;;4183526;28;20028;-86
2022/06/28 05:15:46;;;;;;;4.78;2.85;;;15.00;82.80;;;;;;4180796;28;20059;-85
2022/06/28 05:18:07;;;;;;;7.78;2.80;;;15.00;82.90;;;;;;4182464;28;20025;-86
2022/06/28 05:20:28;;;;;;;7.55;3.08;;;15.10;82.90;;;;;;4187088;28;20394;-85
2022/06/28 05:22:49;;;;;;;6.18;3.03;;;15.20;82.80;;;;;;4181368;28;20017;-88
2022/06/28 05:25:10;;;;;;;9.00;2.80;;;15.40;82.90;;;;;;4180787;28;20078;-85
2022/06/28 05:27:30;;;;;;;5.20;2.85;;;15.30;82.90;;;;;;4177047;28;20079;-85
2022/06/28 05:29:52;;;;;;;8.32;3.17;;;15.40;82.80;;;;;;4177739;28;20034;-88
2022/06/28 05:32:13;;;;;;;8.98;3.17;;;15.50;82.80;;;;;;4179913;28;20045;-84
2022/06/28 05:34:34;;;;;;;4.22;3.00;;;15.50;82.60;;;;;;4166438;28;20647;-85
2022/06/28 05:36:55;;;;;;;6.53;3.50;;;15.60;82.50;;;;;;4168390;28;20040;-85
2022/06/28 05:39:16;;;;;;;4.47;3.17;;;15.60;82.70;;;;;;4168482;28;20029;-85
2022/06/28 05:41:38;;;;;;;5.43;3.40;;;15.70;82.80;;;;;;4173318;28;20036;-88
2022/06/28 05:44:02;;;;;;;6.38;3.30;;;15.80;83.20;;;;;;4168561;28;20644;-83
2022/06/28 05:46:24;;;;;;;11.38;3.60;;;15.90;83.30;;;;;;4171496;28;20070;-84
2022/06/28 05:48:45;;;;;;;3.75;3.10;;;16.00;83.20;;;;;;4171088;28;20041;-84
2022/06/28 05:51:07;;;;;;;4.72;3.20;;;16.10;82.80;;;;;;4164077;28;20048;-85
2022/06/28 05:53:28;;;;;;;4.68;3.33;;;16.10;82.90;;;;;;4170286;28;20036;-83
2022/06/28 05:55:49;;;;;;;4.18;2.95;;;16.20;83.20;;;;;;4172218;28;20114;-85
2022/06/28 05:58:10;;;;;;;6.30;3.45;;;16.30;83.00;;;;;;4168862;28;20037;-85
2022/06/28 06:00:33;;;;;;;5.45;3.30;;;16.50;82.80;;;;;;4167114;28;20021;-84
2022/06/28 06:03:23;;;;;;;6.27;3.57;;;16.50;82.30;;;;;;4166642;28;20387;-84
2022/06/28 06:05:44;;;;;;;4.15;2.83;;;16.70;81.90;;;;;;4167702;28;20033;-86
2022/06/28 06:08:05;;;;;;;7.10;2.75;;;16.80;81.90;;;;;;4168864;28;20052;-86
2022/06/28 06:10:26;;;;;;;3.45;2.15;;;16.90;81.60;;;;;;4171768;28;20100;-85
2022/06/28 06:12:47;;;;;;;3.97;2.20;;;17.00;81.10;;;;;;4168991;28;20041;-85
2022/06/28 06:15:09;;;;;;;10.88;2.65;;;17.10;80.80;;;;;;4172268;28;20390;-85
2022/06/28 06:17:29;;;;;;;6.40;2.17;;;17.10;79.70;;;;;;4173866;28;20035;-86
2022/06/28 06:19:50;;;;;;;3.75;1.85;;;17.20;79.20;;;;;;4170377;28;20063;-85
2022/06/28 06:22:11;;;;;;;8.68;2.22;;;17.20;78.70;;;;;;4171901;28;20706;-85
2022/06/28 06:24:33;;;;;;;7.13;1.85;;;17.30;78.40;;;;;;4168247;28;20029;-85
2022/06/28 06:26:54;;;;;;;2.92;1.83;;;17.40;77.90;;;;;;4173424;28;20042;-86
2022/06/28 06:29:14;;;;;;;4.18;1.55;;;17.50;77.40;;;;;;4169964;28;20059;-87
2022/06/28 06:31:36;;;;;;;3.80;1.60;;;17.40;77.10;;;;;;4170410;28;20036;-87
2022/06/28 06:33:57;;;;;;;7.57;2.20;;;17.50;76.70;;;;;;4176375;28;20060;-87
2022/06/28 06:36:18;;;;;;;5.15;2.15;;;17.50;76.50;;;;;;4171569;28;20689;-86
2022/06/28 06:38:38;;;;;;;6.38;1.80;;;17.60;76.30;;;;;;4172683;28;20052;-86
2022/06/28 06:41:00;;;;;;;3.75;2.20;;;17.60;76.10;;;;;;4178240;28;20025;-85
2022/06/28 06:43:21;;;;;;;5.03;2.20;;;17.70;76.10;;;;;;4176505;28;20044;-87
2022/06/28 06:45:42;;;;;;;2.78;2.00;;;17.70;75.90;;;;;;4180370;28;20037;-86
2022/06/28 06:48:03;;;;;;;4.32;2.83;;;17.80;75.50;;;;;;4174384;28;20097;-86
2022/06/28 06:50:24;;;;;;;7.03;2.10;;;17.70;75.20;;;;;;4171843;28;20061;-85
2022/06/28 06:52:45;;;;;;;3.03;2.33;;;17.70;74.80;;;;;;4172756;28;20044;-87
2022/06/28 06:55:07;;;;;;;6.47;3.08;;;17.90;74.70;;;;;;4170980;28;20037;-86
2022/06/28 06:57:29;;;;;;;7.55;3.20;;;17.80;74.20;;;;;;4170936;28;20036;-85
2022/06/28 06:59:50;;;;;;;4.13;2.58;;;17.80;73.90;;;;;;4174669;28;20032;-85
2022/06/28 07:02:11;;;;;;;9.15;2.78;;;17.70;73.90;;;;;;4165348;28;20034;-85
2022/06/28 07:04:31;;;;;;;5.82;3.20;;;17.80;74.10;;;;;;4171044;28;20042;-85
2022/06/28 07:06:55;;;;;;;9.10;3.45;;;17.70;74.00;;;;;;4168223;28;20410;-88
2022/06/28 07:09:16;;;;;;;6.53;3.03;;;17.70;73.80;;;;;;4171976;28;20065;-85
2022/06/28 07:11:37;;;;;;;8.60;3.28;;;17.70;73.90;;;;;;4173684;28;20040;-87
2022/06/28 07:13:58;;;;;;;9.23;3.35;;;17.70;74.10;;;;;;4174482;28;20068;-85
2022/06/28 07:16:19;;;;;;;5.93;3.30;;;17.80;74.70;;;;;;4183419;28;20096;-85
2022/06/28 07:18:43;;;;;;;14.48;4.20;;;17.80;75.10;;;;;;4172750;28;20080;-85
2022/06/28 07:21:06;;;;;;;9.85;3.97;;;17.90;75.50;;;;;;4168908;28;20496;-86
2022/06/28 07:23:30;;;;;;;8.77;3.65;;;18.00;75.40;;;;;;4165731;28;20025;-88
2022/06/28 07:25:52;;;;;;;6.82;3.28;;;18.10;75.00;;;;;;4167301;28;20048;-87
2022/06/28 07:28:13;;;;;;;4.15;2.00;;;18.10;74.90;;;;;;4171325;28;20656;-85
2022/06/28 07:30:34;;;;;;;3.03;1.75;;;18.20;74.60;;;;;;4166957;28;20108;-85
2022/06/28 07:32:55;;;;;;;6.88;1.70;;;18.30;74.50;;;;;;4175079;28;20036;-87
2022/06/28 07:35:18;;;;;;;4.88;1.75;;;18.40;74.60;;;;;;4167729;28;20069;-85
2022/06/28 07:37:39;;;;;;;5.88;2.03;;;18.50;74.40;;;;;;4173758;28;20534;-87
2022/06/28 07:40:00;;;;;;;5.25;1.65;;;18.60;74.10;;;;;;4173611;28;20032;-87
2022/06/28 07:42:23;;;;;;;2.40;1.40;;;18.70;73.50;;;;;;4172064;28;20386;-86
2022/06/28 07:44:47;;;;;;;2.65;1.30;;;18.90;72.20;;;;;;4168403;28;20036;-87
2022/06/28 07:47:08;;;;;;;2.55;1.30;;;18.90;71.20;;;;;;4169733;28;20033;-87
2022/06/28 07:54:51;;;;;;;3.70;1.88;;;19.00;70.40;;;;;;4174088;28;20100;-85
2022/06/28 07:57:12;;;;;;;5.57;1.35;;;19.00;70.00;;;;;;4172834;28;20040;-84
2022/06/28 07:59:33;;;;;;;7.72;1.13;;;19.10;69.50;;;;;;4164573;28;20038;-85
2022/06/28 08:01:54;;;;;;;2.25;0.73;;;19.10;68.50;;;;;;4173924;28;20053;-85
2022/06/28 08:04:15;;;;;;;3.78;1.00;;;19.20;67.70;;;;;;4170822;28;20028;-86
2022/06/28 08:06:37;;;;;;;3.40;1.00;;;19.20;66.70;;;;;;4176176;28;20032;-87
2022/06/28 08:08:58;;;;;;;3.20;0.98;;;19.20;66.10;;;;;;4168376;28;20041;-88
2022/06/28 08:11:19;;;;;;;1.70;0.80;;;19.20;65.60;;;;;;4172353;28;20037;-87
2022/06/28 08:13:40;;;;;;;3.83;1.42;;;19.20;65.00;;;;;;4172003;28;20056;-87
2022/06/28 08:16:01;;;;;;;3.22;0.98;;;19.20;64.70;;;;;;4172957;28;20025;-88
2022/06/28 08:18:22;;;;;;;3.72;1.10;;;19.10;64.90;;;;;;4172052;28;20026;-85
2022/06/28 08:20:43;;;;;;;3.40;0.95;;;19.10;64.90;;;;;;4165260;28;20052;-88
2022/06/28 08:23:05;;;;;;;3.28;0.95;;;19.20;64.90;;;;;;4167572;28;20036;-87
2022/06/28 08:25:26;;;;;;;2.63;0.52;;;19.20;64.10;;;;;;4168067;28;20029;-85
2022/06/28 08:27:47;;;;;;;1.58;0.80;;;19.20;64.50;;;;;;4167929;28;20095;-89
2022/06/28 08:30:10;;;;;;;2.20;1.08;;;19.20;64.90;;;;;;4168610;28;20916;-86
2022/06/28 08:32:31;;;;;;;4.82;1.10;;;19.30;64.70;;;;;;4167425;28;20755;-85
2022/06/28 08:34:52;;;;;;;3.50;1.10;;;19.40;63.70;;;;;;4160407;28;20318;-86
2022/06/28 08:37:14;;;;;;;3.25;1.20;;;19.50;63.70;;;;;;4162362;28;20736;-85
2022/06/28 08:39:35;;;;;;;10.05;1.00;;;19.60;63.50;;;;;;4168373;28;20025;-86
2022/06/28 08:42:02;;;;;;;3.33;1.10;;;19.70;63.90;;;;;;4169821;28;20040;-85
2022/06/28 08:44:24;;;;;;;2.65;1.00;;;19.80;62.60;;;;;;4170291;28;20045;-85
2022/06/28 08:46:51;;;;;;;4.05;1.10;;;20.00;63.60;;;;;;4170661;28;20476;-84
2022/06/28 08:49:14;;;;;;;3.35;0.98;;;20.10;63.40;;;;;;4168645;28;20036;-86
2022/06/28 08:51:37;;;;;;;4.93;1.10;;;20.20;62.90;;;;;;4169732;28;20093;-84
2022/06/28 08:54:02;;;;;;;4.03;1.05;;;20.30;61.20;;;;;;4185220;28;20047;-87
2022/06/28 08:56:25;;;;;;;6.03;1.40;;;20.40;60.90;;;;;;4169585;28;20790;-86
2022/06/28 08:58:46;;;;;;;2.58;0.70;;;20.50;60.10;;;;;;4167473;28;20053;-87
2022/06/28 09:01:08;;;;;;;2.45;0.82;;;20.60;60.30;;;;;;4162513;28;20153;-87
2022/06/28 09:03:31;;;;;;;1.25;0.90;;;20.70;61.20;;;;;;4167329;28;20475;-84
2022/06/28 09:05:52;;;;;;;2.93;0.80;;;20.80;61.30;;;;;;4163454;28;20033;-86
2022/06/28 09:08:13;;;;;;;3.03;0.90;;;20.90;59.80;;;;;;4173379;28;20041;-87
2022/06/28 09:10:34;;;;;;;2.17;0.60;;;21.00;58.80;;;;;;4187799;28;20024;-89
2022/06/28 09:13:12;;;;;;;3.88;0.90;;;21.10;58.00;;;;;;4184384;28;20051;-87
2022/06/28 09:15:56;;;;;;;3.95;1.15;;;21.10;56.10;;;;;;4166827;28;20032;-88
2022/06/28 09:18:18;;;;;;;2.95;0.82;;;21.20;56.70;;;;;;4165208;28;20078;-85
2022/06/28 09:20:39;;;;;;;4.40;1.17;;;21.20;58.10;;;;;;4166985;28;20028;-88
2022/06/28 09:23:00;;;;;;;1.83;0.80;;;21.20;58.50;;;;;;4166155;28;20474;-86
2022/06/28 09:25:30;;;;;;;2.20;0.95;;;21.30;58.30;;;;;;4163815;28;20181;-86
2022/06/28 09:27:56;;;;;;;1.65;1.00;;;21.30;56.90;;;;;;4164369;28;20044;-86
2022/06/28 09:30:17;;;;;;;5.40;1.08;;;21.40;55.80;;;;;;4163824;28;20125;-87
2022/06/28 09:32:39;;;;;;;3.10;0.80;;;21.30;54.80;;;;;;4166332;28;20226;-85
2022/06/28 09:35:11;;;;;;;5.20;0.70;;;21.30;54.70;;;;;;4163557;28;20033;-85
2022/06/28 09:37:37;;;;;;;6.55;1.15;;;21.20;54.80;;;;;;4165195;28;20080;-86
2022/06/28 09:40:10;;;;;;;3.25;1.13;;;21.10;55.50;;;;;;4162921;28;20021;-85
2022/06/28 09:42:31;;;;;;;1.85;0.70;;;21.10;55.30;;;;;;4166931;28;20033;-87
2022/06/28 09:44:52;;;;;;;3.15;0.50;;;21.00;54.90;;;;;;4165098;28;20036;-86
2022/06/28 09:47:13;;;;;;;2.35;0.77;;;21.00;55.10;;;;;;4164685;28;20102;-86
2022/06/28 09:49:34;;;;;;;7.05;0.90;;;21.00;54.90;;;;;;4168242;28;20035;-86
2022/06/28 09:51:58;;;;;;;1.90;0.70;;;21.10;55.40;;;;;;4166955;28;20029;-88
2022/06/28 09:54:21;;;;;;;2.67;0.70;;;21.20;54.60;;;;;;4166864;28;20044;-87
2022/06/28 09:56:46;;;;;;;2.05;0.60;;;21.20;54.60;;;;;;4166274;28;20063;-86
2022/06/28 09:59:09;;;;;;;3.80;0.70;;;21.30;54.30;;;;;;4164143;28;20505;-86
2022/06/28 10:01:30;;;;;;;2.58;0.73;;;21.30;53.60;;;;;;4168329;28;20025;-86
2022/06/28 10:03:52;;;;;;;3.22;0.73;;;21.50;54.00;;;;;;4167670;28;20143;-85
2022/06/28 10:06:13;;;;;;;2.45;0.80;;;21.60;54.20;;;;;;4168061;28;20245;-85
2022/06/28 10:08:34;;;;;;;3.65;0.70;;;21.70;54.40;;;;;;4167342;28;20033;-88
2022/06/28 10:10:56;;;;;;;2.10;0.90;;;21.70;54.30;;;;;;4172479;28;20037;-86
2022/06/28 10:16:32;;;;;;;3.70;0.95;;;21.90;53.70;;;;;;4168348;28;20652;-88
2022/06/28 10:18:55;;;;;;;3.40;1.02;;;21.90;52.20;;;;;;4165795;28;20033;-87
2022/06/28 10:21:16;;;;;;;2.97;0.82;;;21.90;53.20;;;;;;4166207;28;20040;-87
2022/06/28 10:23:41;;;;;;;2.38;0.77;;;21.90;53.00;;;;;;4171201;28;20181;-86
2022/06/28 10:26:14;;;;;;;3.28;0.80;;;21.90;52.50;;;;;;4168243;28;20033;-85
2022/06/28 10:29:02;;;;;;;1.48;0.60;;;21.90;51.60;;;;;;4164013;28;20055;-86
2022/06/28 10:31:23;;;;;;;2.10;0.60;;;22.00;51.30;;;;;;4169194;28;20049;-86
2022/06/28 10:33:44;;;;;;;2.63;0.82;;;22.00;51.70;;;;;;4166010;28;20077;-86
2022/06/28 10:36:13;;;;;;;1.75;0.50;;;22.00;51.60;;;;;;4168287;28;20079;-85
2022/06/28 10:38:34;;;;;;;2.17;0.40;;;22.10;51.30;;;;;;4165423;28;20033;-87
2022/06/28 10:40:56;;;;;;;2.92;0.60;;;22.10;50.60;;;;;;4171172;28;20119;-86
2022/06/28 10:43:26;;;;;;;2.42;0.55;;;22.20;50.70;;;;;;4179517;28;20029;-87
2022/06/28 10:46:07;;;;;;;2.05;0.40;;;22.30;50.20;;;;;;4178509;28;20071;-86
2022/06/28 10:48:29;;;;;;;1.73;0.55;;;22.30;49.80;;;;;;4170167;28;20031;-87
2022/06/28 10:50:58;;;;;;;1.42;0.65;;;22.40;50.60;;;;;;4170569;28;20057;-86
2022/06/28 10:53:19;;;;;;;2.13;0.70;;;22.50;49.40;;;;;;4170112;28;20056;-86
2022/06/28 10:55:43;;;;;;;3.65;1.48;;;22.60;49.70;;;;;;4166574;28;20491;-86
2022/06/28 10:58:07;;;;;;;3.17;0.80;;;22.70;49.70;;;;;;4166717;28;20036;-88
2022/06/28 11:00:34;;;;;;;1.13;0.40;;;22.70;48.70;;;;;;4168835;28;20394;-87
2022/06/28 11:02:56;;;;;;;2.95;0.70;;;22.80;48.80;;;;;;4164080;28;20029;-85
2022/06/28 11:05:23;;;;;;;1.95;0.50;;;22.80;48.70;;;;;;4168741;28;20047;-85
2022/06/28 11:08:01;;;;;;;2.47;0.80;;;22.80;48.40;;;;;;4171746;28;20083;-87
2022/06/28 11:10:22;;;;;;;2.42;0.70;;;22.90;47.00;;;;;;4169339;28;20118;-87
2022/06/28 11:12:43;;;;;;;2.33;0.55;;;22.80;47.90;;;;;;4165419;28;20126;-86
2022/06/28 11:15:26;;;;;;;2.17;0.60;;;22.90;48.00;;;;;;4174037;28;20144;-86
2022/06/28 11:17:47;;;;;;;4.78;0.65;;;22.90;47.30;;;;;;4175808;28;20043;-84
2022/06/28 11:20:20;;;;;;;4.07;0.85;;;22.90;47.40;;;;;;4171361;28;20032;-86
2022/06/28 11:22:47;;;;;;;2.97;0.88;;;22.90;47.20;;;;;;4165264;28;20037;-86
2022/06/28 11:25:12;;;;;;;2.90;0.73;;;22.90;46.30;;;;;;4167543;28;20041;-85
2022/06/28 11:27:33;;;;;;;2.20;0.65;;;22.90;47.30;;;;;;4164094;28;20031;-86
2022/06/28 11:30:00;;;;;;;2.45;0.45;;;22.90;46.80;;;;;;4169646;28;20029;-86
2022/06/28 11:32:24;;;;;;;5.15;0.98;;;22.90;46.80;;;;;;4166282;28;20965;-86
2022/06/28 11:35:00;;;;;;;2.58;0.80;;;22.90;47.30;;;;;;4165878;28;20071;-88
2022/06/28 11:37:22;;;;;;;3.42;0.52;;;23.00;46.60;;;;;;4177173;28;20091;-89
2022/06/28 11:39:44;;;;;;;10.07;1.00;;;23.00;46.70;;;;;;4165473;28;20036;-87
2022/06/28 11:42:06;;;;;;;5.07;1.30;;;23.00;45.80;;;;;;4165145;28;20039;-85
2022/06/28 11:44:27;;;;;;;2.95;0.65;;;23.10;46.60;;;;;;4163646;28;20068;-89
2022/06/28 11:46:51;;;;;;;3.63;0.70;;;23.10;45.80;;;;;;4168354;28;20072;-88
2022/06/28 11:49:12;;;;;;;2.72;0.70;;;23.20;45.80;;;;;;4160069;28;20119;-88
2022/06/28 11:51:33;;;;;;;2.92;0.73;;;23.20;45.80;;;;;;4163959;28;20044;-87
2022/06/28 11:53:54;;;;;;;3.85;0.90;;;23.30;46.30;;;;;;4164592;28;20526;-88
2022/06/28 11:56:15;;;;;;;7.38;0.98;;;23.40;44.80;;;;;;4165912;28;20871;-87
2022/06/28 11:58:38;;;;;;;1.38;0.50;;;23.40;44.40;;;;;;4168536;28;20033;-87
2022/06/28 12:01:21;;;;;;;3.08;0.85;;;23.40;44.70;;;;;;4168898;28;20044;-86
2022/06/28 12:03:42;;;;;;;2.55;0.82;;;23.40;44.90;;;;;;4165536;28;20156;-87
2022/06/28 12:06:03;;;;;;;3.47;0.70;;;23.40;44.60;;;;;;4162943;28;20045;-86
2022/06/28 12:08:49;;;;;;;4.00;0.77;;;23.40;44.80;;;;;;4169478;28;20550;-87
2022/06/28 12:11:29;;;;;;;3.40;0.90;;;23.30;44.20;;;;;;4177555;28;20538;-85
2022/06/28 12:14:12;;;;;;;3.20;0.77;;;23.30;44.80;;;;;;4170861;28;20383;-86
2022/06/28 12:16:47;;;;;;;2.03;0.55;;;23.30;44.60;;;;;;4164645;28;20035;-86
2022/06/28 12:19:11;;;;;;;3.78;0.73;;;23.10;44.60;;;;;;4166057;28;20033;-86
2022/06/28 12:21:33;;;;;;;7.43;0.82;;;23.20;44.30;;;;;;4164543;28;20029;-86
2022/06/28 12:23:55;;;;;;;4.43;1.38;;;23.20;44.80;;;;;;4169455;28;20084;-87
2022/06/28 12:26:16;;;;;;;3.67;0.80;;;23.20;44.60;;;;;;4164012;28;20064;-85
2022/06/28 12:28:37;;;;;;;4.80;0.88;;;23.20;44.80;;;;;;4164106;28;20044;-85
2022/06/28 12:30:59;;;;;;;21.80;1.58;;;23.20;44.20;;;;;;4172956;28;20653;-87
2022/06/28 12:33:20;;;;;;;2.90;0.50;;;23.30;43.80;;;;;;4184997;28;20041;-85
2022/06/28 12:35:41;;;;;;;4.00;0.68;;;23.40;43.60;;;;;;4173159;28;20029;-86
2022/06/28 12:38:02;;;;;;;6.28;0.60;;;23.50;43.90;;;;;;4168234;28;20032;-87